createdAt,value
2022-12-09T00:03:58.134Z,2.10
2022-12-09T00:09:21.958Z,2.23
2022-12-09T00:14:51.204Z,2.27
2022-12-09T00:20:21.439Z,2.31
2022-12-09T00:25:48.048Z,2.30
2022-12-09T00:31:15.008Z,2.33
2022-12-09T00:36:45.545Z,2.28
2022-12-09T00:42:14.175Z,2.28
2022-12-09T00:47:39.765Z,2.26
2022-12-09T00:53:05.459Z,2.30
2022-12-09T00:58:31.687Z,2.36
2022-12-09T01:04:03.080Z,2.41
2022-12-09T01:09:36.304Z,2.45
2022-12-09T01:15:07.548Z,2.52
2022-12-09T01:20:36.291Z,2.56
2022-12-09T01:26:08.079Z,2.59
2022-12-09T01:31:33.117Z,2.66
2022-12-09T01:37:05.180Z,2.72
2022-12-09T01:42:30.415Z,2.76
2022-12-09T01:48:04.746Z,2.79
2022-12-09T01:53:39.301Z,2.85
2022-12-09T01:59:08.291Z,2.88
2022-12-09T02:04:35.961Z,2.91
2022-12-09T02:09:59.985Z,2.96
2022-12-09T02:15:46.145Z,3.03
2022-12-09T02:21:15.444Z,3.05
2022-12-09T02:26:49.773Z,3.07
2022-12-09T02:32:39.949Z,3.08
2022-12-09T02:38:12.569Z,3.07
2022-12-09T02:43:49.944Z,3.10
2022-12-09T02:49:26.370Z,3.09
2022-12-09T02:54:58.030Z,3.04
2022-12-09T03:00:22.243Z,3.03
2022-12-09T03:05:54.091Z,3.05
2022-12-09T03:11:26.527Z,3.02
2022-12-09T03:17:02.009Z,3.07
2022-12-09T03:22:29.633Z,3.03
2022-12-09T03:28:04.173Z,3.02
2022-12-09T03:33:29.522Z,3.04
2022-12-09T03:39:02.213Z,3.06
2022-12-09T03:44:33.693Z,3.00
2022-12-09T03:49:57.617Z,2.93
2022-12-09T03:55:30.064Z,2.95
2022-12-09T04:00:55.221Z,3.05
2022-12-09T04:06:18.967Z,3.07
2022-12-09T04:11:43.567Z,3.12
2022-12-09T10:20:15.242Z,3.64
2022-12-09T10:25:48.941Z,3.65
2022-12-09T10:31:18.790Z,3.73
2022-12-09T10:36:50.064Z,3.80
2022-12-09T10:42:35.043Z,3.78
2022-12-09T10:47:59.583Z,3.84
2022-12-09T10:53:29.912Z,3.90
2022-12-09T10:59:10.790Z,4.00
2022-12-09T11:04:37.322Z,3.99
2022-12-09T11:10:20.756Z,4.02
2022-12-09T11:15:47.065Z,4.02
2022-12-09T11:21:31.822Z,4.00
2022-12-09T11:27:01.932Z,4.06
2022-12-09T11:32:30.777Z,4.11
2022-12-09T11:38:01.598Z,4.03
2022-12-09T11:43:37.710Z,4.12
2022-12-09T11:49:13.820Z,4.13
2022-12-09T11:54:48.840Z,4.16
2022-12-09T12:00:22.735Z,4.13
2022-12-09T12:05:55.163Z,4.11
2022-12-09T12:11:29.772Z,4.10
2022-12-09T12:16:58.585Z,4.10
2022-12-09T12:22:42.104Z,4.11
2022-12-09T12:28:23.158Z,4.09
2022-12-09T12:34:22.865Z,4.07
2022-12-09T12:39:52.622Z,4.03
2022-12-09T12:45:39.809Z,4.03
2022-12-09T12:51:21.317Z,3.90
2022-12-09T12:56:55.305Z,3.93
2022-12-09T13:02:36.680Z,3.91
2022-12-09T13:08:11.517Z,3.86
2022-12-09T13:13:39.864Z,3.87
2022-12-09T13:19:08.107Z,3.84
2022-12-09T13:24:44.422Z,3.84
2022-12-09T13:30:20.640Z,3.86
2022-12-09T13:35:54.922Z,3.83
2022-12-09T13:42:02.577Z,3.82
2022-12-09T13:47:37.559Z,3.79
2022-12-09T13:53:23.097Z,3.76
2022-12-09T13:59:43.345Z,3.75
2022-12-09T17:37:18.386Z,3.40
2022-12-09T17:42:44.934Z,3.45
2022-12-09T17:48:12.076Z,3.49
2022-12-09T17:53:43.903Z,3.56
2022-12-09T17:59:10.838Z,3.57
2022-12-09T18:04:41.202Z,3.63
2022-12-09T18:10:07.585Z,3.63
2022-12-09T18:15:31.070Z,3.71
2022-12-09T18:21:01.719Z,3.76
2022-12-09T18:26:38.120Z,3.82
2022-12-09T18:32:10.741Z,3.76
2022-12-09T18:37:40.153Z,3.73
2022-12-09T18:43:07.185Z,3.72
2022-12-09T18:48:31.937Z,3.79
2022-12-09T18:54:02.114Z,3.88
2022-12-09T18:59:35.443Z,3.85
2022-12-09T19:05:03.933Z,3.87
2022-12-09T19:10:37.164Z,3.95
2022-12-09T19:16:06.326Z,3.91
2022-12-09T19:21:39.655Z,4.02
2022-12-09T19:27:03.665Z,4.02
2022-12-09T19:32:52.467Z,4.10
2022-12-09T19:38:15.511Z,4.13
2022-12-09T19:43:40.043Z,4.19
2022-12-09T19:49:05.850Z,4.17
2022-12-09T19:54:31.396Z,4.16
2022-12-09T19:59:55.464Z,4.21
2022-12-09T20:05:20.041Z,4.26
2022-12-09T20:10:49.442Z,4.23
2022-12-09T20:16:09.987Z,4.25
2022-12-09T20:21:39.723Z,4.26
2022-12-09T20:27:02.839Z,4.26
2022-12-09T20:32:34.598Z,4.22
2022-12-09T20:38:06.653Z,4.23
2022-12-09T20:43:39.366Z,4.30
2022-12-09T20:54:56.096Z,4.23
2022-12-09T21:00:24.711Z,4.20
2022-12-09T21:05:57.993Z,4.29
2022-12-09T21:11:25.009Z,4.24
2022-12-09T21:17:00.643Z,4.34
2022-12-09T21:22:23.865Z,4.37
2022-12-09T21:27:33.707Z,4.37
2022-12-09T21:33:00.510Z,4.46
2022-12-09T21:38:24.982Z,4.42
2022-12-09T21:43:42.564Z,4.46
2022-12-09T21:49:07.480Z,4.52
2022-12-09T21:54:39.777Z,4.47
2022-12-09T22:00:09.013Z,4.50
2022-12-09T22:05:34.867Z,4.50
2022-12-09T22:10:45.905Z,4.44
2022-12-09T22:16:14.992Z,4.44
2022-12-09T22:22:09.033Z,4.43
2022-12-09T22:27:35.265Z,4.50
2022-12-09T22:33:01.829Z,4.51
2022-12-09T22:38:25.829Z,4.59
2022-12-09T22:43:53.217Z,4.55
2022-12-09T22:49:19.413Z,4.51
2022-12-09T22:54:48.175Z,4.53
2022-12-09T23:00:13.006Z,4.53
2022-12-09T23:05:46.087Z,-143.95
2022-12-09T23:11:15.543Z,-139.80
2022-12-09T23:16:44.719Z,-143.95
2022-12-09T23:22:11.163Z,-143.95
2022-12-09T23:27:40.174Z,-143.95
2022-12-09T23:33:09.071Z,-143.95
2022-12-09T23:38:39.177Z,-143.95
2022-12-09T23:44:10.912Z,-143.95
2022-12-09T23:49:36.326Z,-143.95
2022-12-09T23:55:08.109Z,-143.95
